Time;durP1;ratioP1;P1;durP2;ratioP2;P2;SDS_P1;SDS_P2;PMS_P1;PMS_P2;Temp;Humidity;BMP_temperature;BMP_pressure;BME280_temperature;BME280_humidity;BME280_pressure;Samples;Min_cycle;Max_cycle;Signal;HPM_P1;HPM_P2
2022/08/07 00:01:58;;;;;;;4.10;2.53;;;;;;;16.15;41.09;101543.94;10439942;28;20297;-83
2022/08/07 00:07:20;;;;;;;4.50;2.03;;;;;;;15.88;42.85;101540.78;10443780;28;20263;-86
2022/08/07 00:12:42;;;;;;;4.00;2.10;;;;;;;15.78;42.75;101542.00;10441515;28;20497;-86
2022/08/07 00:18:04;;;;;;;5.23;2.33;;;;;;;15.72;42.34;101537.69;10442445;28;20223;-79
2022/08/07 00:23:27;;;;;;;6.87;2.17;;;;;;;15.71;42.95;101536.03;10447011;28;20231;-80
2022/08/07 00:28:49;;;;;;;1.97;1.60;;;;;;;15.73;41.81;101522.31;10419507;28;20226;-80
2022/08/07 00:34:12;;;;;;;2.80;2.10;;;;;;;15.65;42.92;101523.16;10424788;28;20266;-79
2022/08/07 00:39:34;;;;;;;2.57;2.07;;;;;;;15.58;42.69;101532.22;10452802;28;20238;-80
2022/08/07 00:44:56;;;;;;;4.27;2.00;;;;;;;15.41;43.75;101516.03;10443642;28;20599;-89
2022/08/07 00:50:18;;;;;;;3.97;2.07;;;;;;;15.12;43.71;101524.50;10443617;28;20196;-80
2022/08/07 00:55:40;;;;;;;3.60;2.17;;;;;;;15.24;44.02;101515.28;10458885;28;20512;-89
2022/08/07 01:01:03;;;;;;;3.73;2.17;;;;;;;15.22;43.81;101514.78;10442035;28;20281;-81
2022/08/07 01:06:28;;;;;;;2.90;2.23;;;;;;;15.24;43.58;101509.63;10448134;28;20599;-82
2022/08/07 01:11:51;;;;;;;3.63;2.35;;;;;;;14.79;44.63;101510.03;10429701;28;20204;-79
2022/08/07 01:17:13;;;;;;;4.53;2.30;;;;;;;14.79;44.97;101505.19;10445117;28;20196;-90
2022/08/07 01:22:39;;;;;;;2.23;2.00;;;;;;;14.88;43.99;101501.50;10421321;28;20215;-80
2022/08/07 01:28:02;;;;;;;3.87;1.90;;;;;;;15.07;43.92;101504.81;10425282;28;20195;-88
2022/08/07 01:33:26;;;;;;;2.50;2.30;;;;;;;14.62;45.17;101501.50;10421647;28;20196;-79
2022/08/07 01:38:50;;;;;;;4.17;1.97;;;;;;;14.94;44.06;101500.16;10439617;28;20227;-79
2022/08/07 01:44:16;;;;;;;2.63;1.93;;;;;;;14.73;44.48;101495.13;10433356;28;20230;-79
2022/08/07 01:49:39;;;;;;;3.13;2.17;;;;;;;14.77;44.79;101499.03;10425227;28;20193;-79
2022/08/07 01:55:02;;;;;;;2.93;1.80;;;;;;;14.62;44.87;101491.00;10422204;28;20493;-85
2022/08/07 02:00:29;;;;;;;3.73;2.53;;;;;;;14.35;45.38;101492.16;10418953;28;20673;-80
2022/08/07 02:05:54;;;;;;;3.37;2.10;;;;;;;14.70;44.40;101490.16;10409904;28;20204;-83
2022/08/07 02:11:20;;;;;;;3.17;1.77;;;;;;;14.69;44.63;101499.84;10441043;28;20211;-79
2022/08/07 02:16:46;;;;;;;4.73;2.10;;;;;;;14.50;44.90;101490.84;10442772;28;20504;-79
2022/08/07 02:22:10;;;;;;;3.10;1.90;;;;;;;14.64;44.76;101491.50;10439758;28;20273;-79
2022/08/07 02:27:34;;;;;;;4.10;2.20;;;;;;;14.62;45.01;101488.16;10439384;28;20578;-79
2022/08/07 02:32:58;;;;;;;1.83;1.63;;;;;;;14.03;46.05;101489.81;10423213;28;20214;-79
2022/08/07 02:38:24;;;;;;;2.07;1.60;;;;;;;14.16;45.85;101496.50;10436169;28;20497;-79
2022/08/07 02:43:48;;;;;;;1.53;1.33;;;;;;;14.54;44.98;101489.00;10420258;28;20220;-88
2022/08/07 02:49:10;;;;;;;3.20;1.50;;;;;;;14.20;46.00;101486.19;10434351;28;20203;-79
2022/08/07 02:54:34;;;;;;;4.33;1.80;;;;;;;13.85;46.61;101476.75;10440758;28;20192;-80
2022/08/07 02:59:57;;;;;;;2.03;1.37;;;;;;;14.27;45.33;101470.31;10414184;28;20217;-79
2022/08/07 03:05:19;;;;;;;3.03;1.50;;;;;;;14.06;45.37;101473.00;10440981;28;20245;-79
2022/08/07 03:10:45;;;;;;;2.07;1.50;;;;;;;14.05;45.82;101465.66;10423209;28;20228;-81
2022/08/07 03:16:12;;;;;;;2.67;1.30;;;;;;;14.16;45.08;101479.50;10414241;28;20598;-80
2022/08/07 03:21:35;;;;;;;3.60;1.23;;;;;;;14.23;44.47;101471.31;10431081;28;20832;-79
2022/08/07 03:27:00;;;;;;;1.70;1.60;;;;;;;14.37;44.37;101474.81;10421182;28;20269;-79
2022/08/07 03:32:28;;;;;;;2.40;1.37;;;;;;;13.94;44.72;101467.06;10442833;28;20195;-79
2022/08/07 03:37:56;;;;;;;1.40;1.17;;;;;;;14.12;44.90;101462.31;10447439;28;20562;-83
2022/08/07 03:43:18;;;;;;;2.07;1.60;;;;;;;14.10;44.88;101462.63;10442705;28;20211;-80
2022/08/07 03:48:42;;;;;;;3.63;1.40;;;;;;;13.93;44.85;101464.59;10428224;28;20253;-79
2022/08/07 03:54:13;;;;;;;2.37;1.50;;;;;;;13.98;44.40;101462.41;10437572;28;20200;-79
2022/08/07 03:59:39;;;;;;;3.73;1.20;;;;;;;13.75;45.21;101472.22;10417328;28;20953;-79
2022/08/07 04:05:04;;;;;;;2.17;1.33;;;;;;;14.11;44.46;101466.31;10438859;28;20260;-80
2022/08/07 04:10:27;;;;;;;1.60;1.30;;;;;;;14.10;43.82;101462.63;10455644;28;20224;-79
2022/08/07 04:15:49;;;;;;;1.43;1.10;;;;;;;13.65;45.33;101466.88;10428800;28;20655;-88
2022/08/07 04:21:13;;;;;;;1.40;1.03;;;;;;;14.02;44.62;101457.81;10423579;28;20216;-88
2022/08/07 04:26:38;;;;;;;2.20;1.60;;;;;;;13.77;45.05;101461.41;10419223;28;20195;-83
2022/08/07 04:32:00;;;;;;;1.77;1.53;;;;;;;14.23;44.34;101462.81;10439856;28;20214;-79
2022/08/07 04:37:23;;;;;;;2.80;1.40;;;;;;;13.67;45.50;101473.03;10411351;28;20234;-79
2022/08/07 04:42:45;;;;;;;1.50;1.40;;;;;;;13.74;45.26;101473.38;10419748;28;20211;-79
2022/08/07 04:48:23;;;;;;;2.47;1.63;;;;;;;13.84;45.13;101472.22;10442842;28;20249;-79
2022/08/07 04:53:55;;;;;;;1.57;1.10;;;;;;;13.98;44.60;101473.75;10445659;28;20278;-79
2022/08/07 04:59:35;;;;;;;2.57;1.60;;;;;;;14.39;43.54;101475.31;10423766;28;20223;-79
2022/08/07 05:05:01;;;;;;;2.23;1.10;;;;;;;14.38;43.96;101482.16;10414675;28;20204;-80
2022/08/07 05:10:29;;;;;;;3.90;1.50;;;;;;;14.31;45.06;101476.16;10455256;28;20220;-79
2022/08/07 05:15:53;;;;;;;2.70;1.73;;;;;;;14.25;44.81;101483.16;10441790;28;20201;-81
2022/08/07 05:21:17;;;;;;;1.60;1.47;;;;;;;14.48;44.42;101481.81;10428570;28;20270;-80
2022/08/07 05:26:40;;;;;;;4.47;1.67;;;;;;;14.71;44.20;101483.31;10426030;28;20191;-80
2022/08/07 05:32:06;;;;;;;3.63;1.60;;;;;;;14.77;44.34;101489.66;10439474;28;20227;-79
2022/08/07 05:37:29;;;;;;;3.50;1.93;;;;;;;15.01;43.82;101491.94;10429062;28;20203;-79
2022/08/07 05:42:52;;;;;;;3.90;1.90;;;;;;;14.79;44.47;101493.84;10415703;28;20224;-83
2022/08/07 05:48:15;;;;;;;3.97;1.90;;;;;;;15.13;44.09;101494.91;10420618;28;20208;-80
2022/08/07 05:53:39;;;;;;;3.73;1.90;;;;;;;15.13;44.45;101492.09;10435897;28;20572;-80
2022/08/07 05:59:04;;;;;;;3.13;1.60;;;;;;;15.08;44.25;101495.13;10451058;28;20214;-81
2022/08/07 06:04:36;;;;;;;1.93;1.53;;;;;;;15.50;42.96;101496.97;10414099;28;20524;-80
2022/08/07 06:10:00;;;;;;;2.37;1.57;;;;;;;14.89;44.59;101508.84;10433791;28;20579;-91
2022/08/07 06:15:23;;;;;;;5.47;1.27;;;;;;;14.68;43.42;101501.00;10405317;28;20200;-79
2022/08/07 06:20:53;;;;;;;2.87;1.30;;;;;;;15.60;42.26;101507.16;10412624;28;20277;-86
2022/08/07 06:26:15;;;;;;;1.40;0.90;;;;;;;15.54;42.02;101501.97;10458681;28;20199;-85
2022/08/07 06:31:38;;;;;;;1.58;0.85;;;;;;;16.00;41.10;101507.59;10439758;28;20208;-81
2022/08/07 06:37:00;;;;;;;1.53;0.90;;;;;;;16.14;40.23;101498.81;10464122;28;20195;-80
2022/08/07 06:42:26;;;;;;;2.47;0.90;;;;;;;15.91;40.82;101494.59;10449054;28;20520;-80
2022/08/07 06:47:56;;;;;;;3.03;1.30;;;;;;;16.23;41.61;101493.06;10429093;28;20253;-81
2022/08/07 06:53:21;;;;;;;2.83;1.05;;;;;;;16.46;39.88;101488.69;10428606;28;20200;-80
2022/08/07 06:58:48;;;;;;;1.57;1.00;;;;;;;16.39;40.96;101488.44;10448497;28;20204;-79
2022/08/07 07:04:13;;;;;;;2.00;1.38;;;;;;;17.10;39.38;101489.09;10431586;28;20293;-80
2022/08/07 07:09:37;;;;;;;4.88;1.40;;;;;;;17.31;38.96;101477.63;10456033;28;20269;-81
2022/08/07 07:15:04;;;;;;;1.73;1.47;;;;;;;17.51;37.97;101473.00;10438892;28;20204;-78
2022/08/07 07:20:33;;;;;;;1.88;0.88;;;;;;;16.71;39.76;101484.78;10447624;28;20219;-80
2022/08/07 07:25:59;;;;;;;1.55;0.88;;;;;;;17.25;37.88;101467.63;10456582;28;20195;-80
2022/08/07 07:31:42;;;;;;;1.30;1.20;;;;;;;17.34;37.71;101474.03;10446123;28;20191;-79
2022/08/07 07:37:05;;;;;;;2.33;0.88;;;;;;;18.00;35.79;101476.66;10421426;28;20203;-89
2022/08/07 07:42:28;;;;;;;2.37;0.83;;;;;;;18.10;35.25;101463.94;10460140;28;20248;-88
2022/08/07 07:47:51;;;;;;;0.80;0.57;;;;;;;18.43;35.30;101458.06;10443085;28;20204;-83
2022/08/07 07:53:17;;;;;;;1.23;0.45;;;;;;;19.00;33.13;101455.63;10464272;28;20230;-80
2022/08/07 07:58:40;;;;;;;3.88;0.68;;;;;;;19.18;33.16;101438.16;10440820;28;20207;-88
2022/08/07 08:04:04;;;;;;;1.05;0.50;;;;;;;18.91;33.55;101445.56;10427658;28;20690;-90
2022/08/07 08:09:27;;;;;;;0.98;0.38;;;;;;;19.27;32.26;101438.78;10429311;28;20239;-86
2022/08/07 08:14:49;;;;;;;1.38;0.30;;;;;;;19.29;31.91;101440.09;10456083;28;20196;-89
2022/08/07 08:20:13;;;;;;;1.23;0.40;;;;;;;19.47;31.31;101440.56;10460735;28;20199;-79
2022/08/07 08:31:22;;;;;;;0.32;0.30;;;;;;;19.45;31.67;101430.69;10472084;28;20195;-79
2022/08/07 08:36:48;;;;;;;1.13;0.20;;;;;;;20.09;30.58;101424.47;10458133;28;20199;-80
2022/08/07 08:42:35;;;;;;;0.57;0.22;;;;;;;19.57;30.62;101434.28;10445352;28;20301;-79
2022/08/07 08:48:22;;;;;;;2.67;0.40;;;;;;;19.62;30.54;101430.31;10449396;28;20264;-79
2022/08/07 08:53:59;;;;;;;2.65;0.20;;;;;;;20.36;29.52;101420.59;10460778;28;20793;-89
2022/08/07 08:59:45;;;;;;;0.40;0.10;;;;;;;19.70;28.60;101418.69;10420382;28;20500;-79
2022/08/07 09:05:29;;;;;;;1.17;0.25;;;;;;;20.64;27.44;101411.78;10446865;28;20216;-89
2022/08/07 09:11:09;;;;;;;0.32;0.10;;;;;;;20.34;27.75;101413.59;10457343;28;20224;-87
2022/08/07 09:16:54;;;;;;;0.35;0.13;;;;;;;20.81;26.37;101396.16;10422281;28;20262;-89
2022/08/07 09:22:55;;;;;;;1.73;0.30;;;;;;;21.46;26.03;101398.97;10445002;28;20862;-88
2022/08/07 09:28:26;;;;;;;1.20;0.20;;;;;;;21.51;25.67;101401.50;10425791;28;20620;-88
2022/08/07 09:33:58;;;;;;;4.03;0.20;;;;;;;21.74;25.14;101393.66;10440126;28;20254;-89
2022/08/07 09:39:30;;;;;;;1.83;0.20;;;;;;;21.84;25.42;101393.00;10417418;28;20208;-87
2022/08/07 09:45:11;;;;;;;1.65;0.10;;;;;;;21.38;24.68;101388.59;10426611;28;20220;-86
2022/08/07 09:51:22;;;;;;;0.40;0.13;;;;;;;22.16;23.54;101378.28;10443521;28;20222;-89
2022/08/07 09:57:09;;;;;;;1.30;0.10;;;;;;;20.34;25.44;101385.78;10364880;28;20496;-87
2022/08/07 10:02:31;;;;;;;0.93;0.20;;;;;;;21.58;24.33;101372.94;10455634;28;20234;-88
2022/08/07 10:08:02;;;;;;;0.25;0.20;;;;;;;21.70;25.67;101381.31;10440690;28;20235;-85
2022/08/07 10:13:27;;;;;;;1.05;0.22;;;;;;;21.56;25.20;101375.38;10452655;28;20203;-88
2022/08/07 10:18:49;;;;;;;1.60;0.20;;;;;;;20.72;26.13;101361.97;10470280;28;20253;-88
2022/08/07 10:24:24;;;;;;;1.83;0.10;;;;;;;20.42;25.75;101367.56;10449155;28;20215;-89
2022/08/07 10:30:08;;;;;;;1.27;0.10;;;;;;;21.64;24.47;101359.06;10445864;28;20203;-89
2022/08/07 10:35:52;;;;;;;1.23;0.20;;;;;;;21.85;24.70;101350.78;10456344;28;20195;-88
2022/08/07 10:41:28;;;;;;;0.10;0.10;;;;;;;21.64;23.66;101345.56;10451561;28;20504;-88
2022/08/07 10:46:55;;;;;;;0.98;0.15;;;;;;;21.89;24.12;101350.81;10437107;28;20199;-88
2022/08/07 10:52:27;;;;;;;1.35;0.20;;;;;;;21.78;24.58;101337.16;10444181;28;20276;-87
2022/08/07 10:58:03;;;;;;;3.85;0.20;;;;;;;22.38;23.13;101333.44;10423929;28;20274;-87
2022/08/07 11:03:38;;;;;;;0.65;0.10;;;;;;;21.15;25.34;101325.50;10429609;28;20273;-88
2022/08/07 11:09:30;;;;;;;0.68;0.10;;;;;;;21.48;24.12;101317.03;10477780;28;20288;-86
2022/08/07 11:15:01;;;;;;;0.43;0.13;;;;;;;22.12;23.61;101294.16;10464614;28;20195;-87
2022/08/07 11:20:42;;;;;;;2.72;0.10;;;;;;;22.63;22.81;101305.00;10444564;28;20204;-89
2022/08/07 11:26:12;;;;;;;0.43;0.10;;;;;;;23.15;22.14;101295.22;10468174;28;20642;-89
2022/08/07 11:31:43;;;;;;;0.65;0.20;;;;;;;22.10;23.39;101290.84;10441167;28;20199;-85
2022/08/07 11:37:14;;;;;;;0.57;0.20;;;;;;;23.05;22.22;101284.41;10447837;28;20531;-88
2022/08/07 11:42:40;;;;;;;0.30;0.20;;;;;;;23.27;22.55;101279.69;10452488;28;20216;-84
2022/08/07 11:48:02;;;;;;;0.30;0.13;;;;;;;22.27;22.67;101280.78;10475290;28;20239;-86
2022/08/07 11:54:02;;;;;;;0.25;0.13;;;;;;;22.63;22.10;101273.38;10481171;28;20188;-88
2022/08/07 12:00:05;;;;;;;1.50;0.10;;;;;;;22.00;22.70;101274.31;10478561;28;20226;-87
2022/08/07 12:05:49;;;;;;;0.20;0.20;;;;;;;23.71;22.24;101259.41;10457718;28;20215;-85
2022/08/07 12:11:25;;;;;;;1.58;0.22;;;;;;;23.44;22.20;101267.44;10477830;28;20218;-86
2022/08/07 12:16:52;;;;;;;1.02;0.68;;;;;;;24.52;21.20;101253.91;10449037;28;20465;-87
2022/08/07 12:22:44;;;;;;;0.20;0.10;;;;;;;24.17;21.35;101263.28;10456409;28;20243;-85
2022/08/07 12:28:14;;;;;;;1.15;0.20;;;;;;;24.20;20.78;101253.84;10476029;28;20253;-85
2022/08/07 12:33:37;;;;;;;0.20;0.10;;;;;;;24.61;20.79;101241.97;10425063;28;20200;-84
2022/08/07 12:39:04;;;;;;;0.47;0.10;;;;;;;24.32;21.01;101238.25;10438636;28;20230;-87
2022/08/07 12:44:27;;;;;;;0.30;0.10;;;;;;;24.97;20.15;101237.06;10436586;28;20220;-86
2022/08/07 12:50:00;;;;;;;1.98;0.75;;;;;;;24.57;20.31;101232.50;10430977;28;20250;-83
2022/08/07 12:55:28;;;;;;;1.17;0.20;;;;;;;23.68;20.75;101240.88;10469627;28;20241;-85
2022/08/07 13:01:27;;;;;;;3.10;0.38;;;;;;;24.70;20.37;101225.09;10450429;28;20241;-79
2022/08/07 13:07:16;;;;;;;0.50;0.10;;;;;;;23.98;20.16;101234.00;10412868;28;20277;-79
2022/08/07 13:13:04;;;;;;;1.75;0.20;;;;;;;23.30;21.21;101229.97;10433874;28;20192;-81
2022/08/07 13:18:42;;;;;;;0.30;0.10;;;;;;;24.69;20.14;101217.69;10446302;28;20245;-80
2022/08/07 13:24:27;;;;;;;0.57;0.13;;;;;;;24.26;19.98;101214.75;10429139;28;20219;-82
2022/08/07 13:29:59;;;;;;;0.73;0.10;;;;;;;24.03;19.49;101222.91;10452387;28;20192;-84
2022/08/07 13:35:30;;;;;;;0.80;0.10;;;;;;;23.72;19.82;101224.44;10439110;28;20192;-85
2022/08/07 13:41:11;;;;;;;1.88;0.17;;;;;;;23.60;20.05;101207.50;10433609;28;20200;-85
2022/08/07 13:46:45;;;;;;;0.15;0.10;;;;;;;25.34;19.34;101193.31;10417244;28;20289;-85
2022/08/07 13:52:08;;;;;;;0.73;0.20;;;;;;;24.99;19.20;101185.53;10425374;28;20621;-87
2022/08/07 13:57:32;;;;;;;0.10;0.10;;;;;;;24.74;19.11;101187.63;10441449;28;20222;-86
2022/08/07 14:02:55;;;;;;;0.55;0.20;;;;;;;25.17;19.06;101173.94;10425107;28;20212;-86
2022/08/07 14:08:19;;;;;;;0.45;0.20;;;;;;;25.07;20.03;101166.16;10431968;28;20231;-85
2022/08/07 14:13:47;;;;;;;0.35;0.10;;;;;;;24.64;20.16;101164.13;10421849;28;20196;-85
2022/08/07 14:19:19;;;;;;;0.30;0.10;;;;;;;24.56;19.62;101167.44;10441440;28;20191;-87
2022/08/07 14:24:46;;;;;;;0.85;0.20;;;;;;;24.35;20.13;101156.72;10434630;28;20282;-86
2022/08/07 14:30:10;;;;;;;0.85;0.10;;;;;;;24.17;20.46;101153.00;10450619;28;20253;-87
2022/08/07 14:35:35;;;;;;;1.75;0.20;;;;;;;24.94;20.13;101160.00;10439712;28;20265;-84
2022/08/07 14:41:00;;;;;;;0.85;0.10;;;;;;;24.50;20.01;101164.13;10432914;28;20203;-82
2022/08/07 14:46:23;;;;;;;1.65;0.20;;;;;;;24.59;19.95;101155.88;10452267;28;20319;-85
2022/08/07 14:51:46;;;;;;;1.63;0.93;;;;;;;25.37;19.47;101145.50;10460040;28;20220;-84
2022/08/07 14:57:10;;;;;;;2.80;0.10;;;;;;;25.24;18.76;101137.25;10429856;28;20204;-86
2022/08/07 15:02:35;;;;;;;1.60;0.15;;;;;;;25.33;19.74;101140.53;10448370;28;20216;-84
2022/08/07 15:07:58;;;;;;;1.50;0.17;;;;;;;25.11;19.65;101138.13;10435397;28;20682;-83
2022/08/07 15:13:22;;;;;;;0.30;0.17;;;;;;;25.21;19.05;101134.38;10462935;28;21025;-85
2022/08/07 15:18:46;;;;;;;0.70;0.20;;;;;;;25.27;19.30;101136.44;10446939;28;20199;-81
2022/08/07 15:24:13;;;;;;;1.08;0.10;;;;;;;25.05;19.96;101131.97;10448681;28;20247;-81
2022/08/07 15:29:40;;;;;;;0.25;0.10;;;;;;;24.70;21.12;101129.97;10444654;28;20196;-87
2022/08/07 15:35:03;;;;;;;0.47;0.28;;;;;;;24.41;21.38;101129.16;10446464;28;20200;-88
2022/08/07 15:40:29;;;;;;;0.75;0.20;;;;;;;24.78;21.05;101127.91;10438239;28;20227;-86
2022/08/07 15:45:53;;;;;;;0.80;0.22;;;;;;;24.28;20.89;101123.00;10456864;28;20556;-87
2022/08/07 15:51:17;;;;;;;1.50;0.43;;;;;;;23.98;21.75;101115.94;10425748;28;20207;-86
2022/08/07 15:56:41;;;;;;;0.75;0.10;;;;;;;23.69;21.57;101107.25;10442532;28;20223;-87
2022/08/07 16:02:05;;;;;;;0.40;0.25;;;;;;;24.51;20.92;101102.38;10437252;28;20200;-86
2022/08/07 16:07:39;;;;;;;0.75;0.17;;;;;;;24.34;21.21;101108.97;10443651;28;20614;-86
2022/08/07 16:13:20;;;;;;;1.73;0.32;;;;;;;24.15;21.86;101103.63;10433582;28;20228;-86
2022/08/07 16:19:11;;;;;;;2.17;0.30;;;;;;;24.03;21.95;101109.78;10467029;28;20227;-86
2022/08/07 16:24:36;;;;;;;0.98;0.30;;;;;;;23.77;22.25;101103.16;10467000;28;20833;-86
2022/08/07 16:29:58;;;;;;;2.17;0.30;;;;;;;23.76;22.28;101107.28;10454971;28;20226;-83
2022/08/07 16:35:28;;;;;;;1.38;0.20;;;;;;;23.67;22.33;101095.34;10444443;28;20276;-86
2022/08/07 16:41:18;;;;;;;0.30;0.30;;;;;;;23.88;22.72;101098.25;10434931;28;20711;-85
2022/08/07 16:46:55;;;;;;;0.85;0.15;;;;;;;23.99;22.08;101097.41;10409799;28;20903;-85
2022/08/07 16:52:42;;;;;;;0.93;0.20;;;;;;;24.23;21.61;101097.47;10440717;28;20250;-86
2022/08/07 16:58:25;;;;;;;2.50;0.20;;;;;;;23.65;22.55;101100.69;10428933;28;20610;-85
2022/08/07 17:04:14;;;;;;;1.00;0.25;;;;;;;23.17;23.34;101109.50;10411102;28;20594;-86
2022/08/07 17:09:53;;;;;;;2.90;0.30;;;;;;;23.78;22.42;101093.31;10433941;28;20321;-85
2022/08/07 17:15:19;;;;;;;0.90;0.30;;;;;;;23.33;23.21;101093.97;10417928;28;20301;-83
2022/08/07 17:20:42;;;;;;;3.15;0.85;;;;;;;24.22;21.98;101090.06;10430691;28;20616;-82
2022/08/07 17:26:17;;;;;;;1.05;0.38;;;;;;;23.92;23.23;101093.31;10437289;28;20243;-86
2022/08/07 17:32:00;;;;;;;0.45;0.40;;;;;;;23.46;23.49;101092.34;10425002;28;20228;-84
2022/08/07 17:37:29;;;;;;;0.90;0.40;;;;;;;23.40;23.33;101097.69;10415430;28;20191;-85
2022/08/07 17:43:02;;;;;;;0.40;0.40;;;;;;;23.10;23.26;101106.59;10401786;28;20284;-86
2022/08/07 17:48:33;;;;;;;0.93;0.30;;;;;;;23.63;23.06;101097.34;10431402;28;20620;-84
2022/08/07 17:54:25;;;;;;;0.65;0.40;;;;;;;23.49;22.97;101098.13;10422928;28;20224;-84
2022/08/07 17:59:51;;;;;;;1.05;0.30;;;;;;;23.66;22.95;101098.63;10419492;28;20279;-84
2022/08/07 18:05:22;;;;;;;0.40;0.30;;;;;;;23.46;23.57;101098.94;10396639;28;20258;-84
2022/08/07 18:11:14;;;;;;;2.67;0.60;;;;;;;23.19;23.80;101109.09;10390811;28;20304;-84
2022/08/07 18:16:51;;;;;;;2.42;0.40;;;;;;;23.36;23.86;101108.34;10413948;28;20517;-85
2022/08/07 18:22:37;;;;;;;0.52;0.30;;;;;;;22.55;24.14;101121.03;10415441;28;20258;-81
2022/08/07 18:28:36;;;;;;;1.30;0.45;;;;;;;22.86;23.88;101121.66;10408798;28;20223;-81
2022/08/07 18:34:18;;;;;;;1.20;0.40;;;;;;;23.11;24.25;101128.38;10418157;28;20209;-85
2022/08/07 18:40:02;;;;;;;1.02;0.35;;;;;;;23.03;24.48;101126.66;10400921;28;20231;-86
2022/08/07 18:45:45;;;;;;;3.83;0.43;;;;;;;22.66;24.83;101141.22;10409236;28;20252;-86
2022/08/07 18:51:20;;;;;;;2.92;0.40;;;;;;;22.35;25.33;101154.09;10419969;28;20200;-84
2022/08/07 18:56:56;;;;;;;0.95;0.68;;;;;;;22.95;24.64;101150.03;10409975;28;20220;-83
2022/08/07 19:02:27;;;;;;;2.38;0.73;;;;;;;22.72;25.19;101156.03;10397367;28;20670;-81
2022/08/07 19:07:53;;;;;;;3.08;0.55;;;;;;;22.62;25.64;101162.53;10395119;28;20337;-84
2022/08/07 19:13:19;;;;;;;0.40;0.30;;;;;;;22.49;25.88;101171.44;10431553;28;20537;-84
2022/08/07 19:18:53;;;;;;;4.00;2.08;;;;;;;22.28;26.36;101176.16;10421014;28;20384;-85
2022/08/07 19:24:34;;;;;;;2.53;0.60;;;;;;;22.29;26.63;101172.91;10435797;28;20689;-84
2022/08/07 19:30:00;;;;;;;2.97;0.70;;;;;;;22.05;27.35;101193.56;10448436;28;20313;-85
2022/08/07 19:35:25;;;;;;;2.15;0.45;;;;;;;21.97;27.67;101194.75;10435958;28;20223;-79
2022/08/07 19:40:48;;;;;;;1.17;0.70;;;;;;;21.62;28.02;101197.97;10447988;28;20227;-82
2022/08/07 19:46:10;;;;;;;5.40;3.03;;;;;;;21.63;28.01;101203.31;10437058;28;20251;-83
2022/08/07 19:51:34;;;;;;;3.97;1.80;;;;;;;21.46;28.59;101203.94;10425409;28;20250;-82
2022/08/07 19:56:59;;;;;;;1.48;1.13;;;;;;;21.38;28.85;101214.47;10438421;28;20196;-78
2022/08/07 20:02:28;;;;;;;1.17;0.70;;;;;;;21.05;29.89;101218.06;10447481;28;20249;-84
2022/08/07 20:07:53;;;;;;;1.20;0.50;;;;;;;21.28;29.60;101226.59;10436692;28;20398;-85
2022/08/07 20:13:17;;;;;;;1.85;0.80;;;;;;;21.07;30.01;101214.81;10439025;28;20219;-82
2022/08/07 20:18:42;;;;;;;2.08;0.90;;;;;;;21.00;30.44;101215.53;10420519;28;20555;-84
2022/08/07 20:24:12;;;;;;;2.78;0.57;;;;;;;20.72;30.90;101217.91;10421676;28;20588;-80
2022/08/07 20:29:43;;;;;;;0.95;0.77;;;;;;;20.83;30.96;101216.06;10402321;28;20230;-80
2022/08/07 20:35:09;;;;;;;1.30;0.88;;;;;;;20.80;30.98;101219.72;10424040;28;20192;-85
2022/08/07 20:40:38;;;;;;;1.45;0.80;;;;;;;20.69;30.46;101215.84;10446180;28;20212;-83
2022/08/07 20:46:01;;;;;;;0.95;0.60;;;;;;;20.69;31.31;101227.28;10421774;28;20648;-83
2022/08/07 20:51:26;;;;;;;1.58;0.80;;;;;;;20.53;31.49;101229.47;10422936;28;20227;-81
2022/08/07 20:56:51;;;;;;;2.67;0.90;;;;;;;20.55;31.25;101227.06;10435691;28;20257;-78
2022/08/07 21:08:02;;;;;;;1.83;0.82;;;;;;;20.26;32.08;101232.25;10448406;28;20277;-78
2022/08/07 21:13:25;;;;;;;3.25;0.73;;;;;;;20.12;32.66;101234.81;10435723;28;20551;-82
2022/08/07 21:18:48;;;;;;;4.20;0.90;;;;;;;20.05;32.96;101240.38;10418153;28;20604;-77
2022/08/07 21:24:15;;;;;;;1.70;0.88;;;;;;;20.03;32.65;101237.09;10416415;28;20243;-78
2022/08/07 21:29:50;;;;;;;2.17;0.85;;;;;;;19.99;33.17;101239.06;10435226;28;20223;-84
2022/08/07 21:35:21;;;;;;;3.75;1.13;;;;;;;19.81;33.58;101237.84;10428325;28;20544;-78
2022/08/07 21:41:16;;;;;;;1.50;0.85;;;;;;;19.87;33.72;101242.09;10445719;28;20279;-78
2022/08/07 21:46:53;;;;;;;3.22;1.00;;;;;;;19.58;34.10;101249.22;10416373;28;20247;-82
2022/08/07 21:52:38;;;;;;;2.50;0.70;;;;;;;19.74;34.21;101250.81;10437839;28;20542;-77
2022/08/07 21:58:05;;;;;;;1.83;0.90;;;;;;;19.47;34.17;101251.84;10411986;28;20204;-81
2022/08/07 22:04:04;;;;;;;2.05;0.70;;;;;;;19.53;34.34;101261.75;10412992;28;20265;-78
2022/08/07 22:09:34;;;;;;;2.20;0.90;;;;;;;19.55;35.01;101265.06;10443328;28;20262;-82
2022/08/07 22:15:01;;;;;;;1.55;1.00;;;;;;;19.38;34.89;101277.78;10421582;28;20228;-77
2022/08/07 22:20:46;;;;;;;3.28;0.63;;;;;;;19.46;34.62;101267.34;10429755;28;20192;-77
2022/08/07 22:26:32;;;;;;;0.80;0.80;;;;;;;19.33;34.89;101280.94;10448614;28;20324;-79
2022/08/07 22:32:17;;;;;;;2.03;1.02;;;;;;;19.20;35.44;101278.56;10416998;28;20284;-80
2022/08/07 22:37:58;;;;;;;3.08;1.13;;;;;;;19.07;35.37;101271.31;10451795;28;20230;-83
2022/08/07 22:43:30;;;;;;;1.70;1.00;;;;;;;19.16;34.96;101267.03;10444710;28;20320;-77
2022/08/07 22:48:52;;;;;;;2.80;1.00;;;;;;;18.78;35.79;101273.41;10452941;28;20223;-78
2022/08/07 22:54:28;;;;;;;2.00;1.17;;;;;;;18.67;35.94;101275.19;10455911;28;20234;-77
2022/08/07 23:00:17;;;;;;;3.00;1.20;;;;;;;18.81;35.88;101275.53;10417849;28;20284;-78
2022/08/07 23:05:58;;;;;;;1.27;1.00;;;;;;;18.48;36.40;101283.66;10423493;28;20309;-82
2022/08/07 23:11:30;;;;;;;1.75;1.13;;;;;;;18.65;36.15;101278.41;10433381;28;20310;-77
2022/08/07 23:17:11;;;;;;;1.75;0.90;;;;;;;18.38;36.98;101282.16;10420068;28;20246;-78
2022/08/07 23:23:10;;;;;;;2.95;1.30;;;;;;;18.41;36.52;101292.84;10435358;28;20262;-77
2022/08/07 23:28:44;;;;;;;2.60;1.25;;;;;;;18.43;36.82;101295.34;10435701;28;20304;-83
2022/08/07 23:34:28;;;;;;;2.88;1.10;;;;;;;18.44;36.78;101294.97;10434761;28;20188;-84
2022/08/07 23:40:02;;;;;;;4.10;1.13;;;;;;;18.09;37.09;101288.25;10434267;28;20214;-77
2022/08/07 23:45:28;;;;;;;1.75;1.30;;;;;;;18.27;37.44;101290.41;10448626;28;20259;-78
2022/08/07 23:50:58;;;;;;;2.65;1.10;;;;;;;18.35;37.00;101296.34;10435684;28;20269;-85
2022/08/07 23:56:26;;;;;;;1.83;1.30;;;;;;;18.23;37.39;101285.78;10450183;28;20245;-77
